Time;durP1;ratioP1;P1;durP2;ratioP2;P2;SDS_P1;SDS_P2;PMS_P1;PMS_P2;Temp;Humidity;BMP_temperature;BMP_pressure;BME280_temperature;BME280_humidity;BME280_pressure;Samples;Min_cycle;Max_cycle;Signal;HPM_P1;HPM_P2
2023/01/24 00:00:38;;;;;;;32.00;18.45;;;;;;;1.98;100.00;103967.03;10476192;28;20545;-78
2023/01/24 00:05:39;;;;;;;32.30;18.43;;;;;;;1.98;100.00;103976.03;10502848;28;20032;-79
2023/01/24 00:10:40;;;;;;;36.70;19.45;;;;;;;1.97;100.00;103976.19;10468948;28;20068;-79
2023/01/24 00:15:40;;;;;;;35.53;17.63;;;;;;;1.96;100.00;103977.16;10462568;28;20045;-79
2023/01/24 00:20:41;;;;;;;35.85;19.92;;;;;;;1.82;100.00;103951.09;10461257;28;20052;-79
2023/01/24 00:25:42;;;;;;;34.95;18.77;;;;;;;1.95;100.00;103976.28;10462338;28;20072;-79
2023/01/24 00:30:42;;;;;;;35.15;19.90;;;;;;;1.95;100.00;103975.44;10490110;28;20036;-79
2023/01/24 00:35:43;;;;;;;36.43;20.53;;;;;;;1.94;100.00;103973.69;10503988;28;20033;-80
2023/01/24 00:40:43;;;;;;;38.17;20.58;;;;;;;1.91;100.00;103966.66;10504134;28;20439;-76
2023/01/24 00:45:44;;;;;;;39.15;20.55;;;;;;;1.93;100.00;103955.66;10485660;28;21178;-79
2023/01/24 00:50:44;;;;;;;37.33;20.45;;;;;;;1.92;100.00;103953.91;10483179;28;20046;-80
2023/01/24 00:55:45;;;;;;;36.33;21.27;;;;;;;1.93;100.00;103961.09;10472524;28;20033;-79
2023/01/24 01:00:46;;;;;;;38.57;21.37;;;;;;;2.02;100.00;103952.19;10472342;28;20056;-79
2023/01/24 01:05:46;;;;;;;39.88;20.42;;;;;;;2.02;100.00;103950.34;10484158;28;20037;-80
2023/01/24 01:10:47;;;;;;;39.97;21.25;;;;;;;2.00;100.00;103946.88;10503010;28;20032;-80
2023/01/24 01:15:47;;;;;;;35.72;19.65;;;;;;;2.00;100.00;103946.88;10502291;28;20037;-79
2023/01/24 01:20:50;;;;;;;38.72;21.77;;;;;;;2.00;100.00;103946.03;10489076;28;20516;-80
2023/01/24 01:25:50;;;;;;;42.20;22.17;;;;;;;2.00;100.00;103946.88;10482017;28;20064;-79
2023/01/24 01:30:53;;;;;;;38.20;21.33;;;;;;;2.00;100.00;103951.47;10501841;28;20045;-79
2023/01/24 01:35:54;;;;;;;44.95;22.35;;;;;;;2.00;100.00;103954.19;10499927;28;20059;-80
2023/01/24 01:40:55;;;;;;;44.00;22.58;;;;;;;1.90;100.00;103935.03;10501281;28;20107;-79
2023/01/24 01:46:17;;;;;;;44.45;23.83;;;;;;;1.95;100.00;103938.25;10466043;28;20443;-78
2023/01/24 01:51:26;;;;;;;46.03;22.15;;;;;;;2.00;100.00;103957.75;10477831;28;20437;-78
2023/01/24 01:56:33;;;;;;;42.92;23.30;;;;;;;2.01;100.00;103955.91;10455541;28;20060;-77
2023/01/24 02:01:34;;;;;;;40.65;20.98;;;;;;;2.01;100.00;103961.34;10497966;28;20040;-79
2023/01/24 02:06:46;;;;;;;43.78;22.08;;;;;;;1.99;100.00;103957.91;10499470;28;20040;-78
2023/01/24 02:11:47;;;;;;;42.15;22.75;;;;;;;1.98;100.00;103953.44;10498244;28;20033;-79
2023/01/24 02:16:47;;;;;;;42.47;21.77;;;;;;;1.97;100.00;103946.28;10481093;28;20036;-80
2023/01/24 02:21:49;;;;;;;43.30;22.77;;;;;;;1.97;100.00;103943.56;10499857;28;20047;-79
2023/01/24 02:26:49;;;;;;;45.22;23.42;;;;;;;1.93;100.00;103939.38;10446796;28;20029;-79
2023/01/24 02:32:01;;;;;;;37.28;22.70;;;;;;;1.98;100.00;103948.84;10471011;28;20041;-79
2023/01/24 02:37:04;;;;;;;48.13;24.05;;;;;;;1.98;100.00;103946.13;10496455;28;20039;-79
2023/01/24 02:42:26;;;;;;;41.80;22.27;;;;;;;1.97;100.00;103951.72;10496908;28;20040;-79
2023/01/24 02:47:32;;;;;;;45.58;23.95;;;;;;;1.97;100.00;103954.44;10499405;28;20028;-79
2023/01/24 02:58:06;;;;;;;47.85;24.73;;;;;;;1.96;100.00;103958.13;10472957;28;20049;-82
2023/01/24 03:03:07;;;;;;;35.95;19.92;;;;;;;1.89;100.00;103943.31;10488260;28;20063;-79
2023/01/24 03:08:08;;;;;;;37.83;20.38;;;;;;;1.95;100.00;103951.84;10480129;28;20047;-79
2023/01/24 03:34:45;;;;;;;28.55;17.65;;;;;;;1.94;100.00;103941.06;10500306;28;20043;-81
2023/01/24 03:39:58;;;;;;;28.85;18.10;;;;;;;1.95;100.00;103937.38;10505231;28;20052;-80
2023/01/24 03:44:58;;;;;;;28.75;18.05;;;;;;;1.95;100.00;103948.25;10506085;28;20036;-80
2023/01/24 03:55:17;;;;;;;35.05;19.75;;;;;;;1.95;100.00;103943.69;10487827;28;20044;-80
2023/01/24 04:00:18;;;;;;;28.40;17.60;;;;;;;1.95;100.00;103943.69;10503116;28;20040;-80
2023/01/24 04:05:20;;;;;;;25.33;16.50;;;;;;;1.87;100.00;103935.28;10486958;28;20112;-81
2023/01/24 04:10:21;;;;;;;27.17;16.42;;;;;;;1.75;100.00;103918.09;10503063;28;20115;-81
2023/01/24 04:15:23;;;;;;;29.75;16.33;;;;;;;1.88;100.00;103944.28;10503109;28;20602;-80
2023/01/24 04:20:24;;;;;;;28.60;17.20;;;;;;;1.85;100.00;103947.25;10479290;28;20036;-81
2023/01/24 04:25:24;;;;;;;29.33;17.83;;;;;;;1.89;100.00;103955.03;10485417;28;20033;-81
2023/01/24 04:30:25;;;;;;;28.40;16.45;;;;;;;1.89;100.00;103956.91;10463720;28;20044;-81
2023/01/24 04:35:28;;;;;;;25.33;15.90;;;;;;;1.74;100.00;103946.25;10504004;28;20048;-81
2023/01/24 04:40:28;;;;;;;27.35;16.83;;;;;;;1.85;100.00;103952.69;10502135;28;20029;-81
2023/01/24 04:45:28;;;;;;;27.45;17.45;;;;;;;1.76;100.00;103933.41;10503793;28;20404;-81
2023/01/24 04:50:29;;;;;;;27.83;17.15;;;;;;;1.87;100.00;103953.44;10500192;28;20047;-81
2023/01/24 04:55:29;;;;;;;28.52;16.55;;;;;;;1.83;100.00;103951.94;10485932;28;20041;-81
2023/01/24 05:00:30;;;;;;;29.08;15.85;;;;;;;1.89;100.00;103957.75;10464989;28;20040;-80
2023/01/24 05:05:30;;;;;;;27.70;16.60;;;;;;;1.91;100.00;103957.63;10497739;28;20044;-80
2023/01/24 05:10:31;;;;;;;28.15;17.48;;;;;;;1.90;100.00;103956.78;10477906;28;20037;-73
2023/01/24 05:15:31;;;;;;;31.40;19.30;;;;;;;1.90;100.00;103961.31;10490070;28;20048;-81
2023/01/24 05:20:32;;;;;;;27.20;16.55;;;;;;;1.89;100.00;103948.75;10499357;28;20495;-78
2023/01/24 05:25:33;;;;;;;25.55;16.55;;;;;;;1.85;100.00;103948.09;10464078;28;20045;-79
2023/01/24 05:30:33;;;;;;;28.10;15.68;;;;;;;1.84;100.00;103943.69;10458532;28;20072;-78
2023/01/24 05:35:34;;;;;;;20.77;14.43;;;;;;;1.84;100.00;103948.22;10457073;28;20040;-79
2023/01/24 05:40:34;;;;;;;24.08;16.35;;;;;;;1.84;100.00;103946.41;10469705;28;20025;-78
2023/01/24 05:45:35;;;;;;;23.83;15.57;;;;;;;1.85;100.00;103948.09;10501468;28;20036;-79
2023/01/24 05:50:36;;;;;;;23.60;15.95;;;;;;;1.81;100.00;103942.03;10497975;28;20033;-79
2023/01/24 05:55:36;;;;;;;25.33;15.93;;;;;;;1.81;100.00;103939.31;10471937;28;20033;-79
2023/01/24 06:00:36;;;;;;;24.50;15.38;;;;;;;1.83;100.00;103943.78;10496609;28;20087;-75
2023/01/24 06:05:37;;;;;;;28.30;14.88;;;;;;;1.76;100.00;103933.41;10461443;28;20048;-79
2023/01/24 06:10:37;;;;;;;27.33;15.70;;;;;;;1.84;100.00;103948.22;10456703;28;20037;-79
2023/01/24 06:15:38;;;;;;;23.10;14.88;;;;;;;1.83;100.00;103951.94;10459672;28;20395;-78
2023/01/24 06:20:39;;;;;;;24.93;15.63;;;;;;;1.83;100.00;103950.09;10499243;28;20435;-79
2023/01/24 06:25:39;;;;;;;26.48;17.42;;;;;;;1.84;100.00;103954.53;10498928;28;20044;-79
2023/01/24 06:30:40;;;;;;;22.70;15.13;;;;;;;1.86;100.00;103970.69;10476590;28;20112;-79
2023/01/24 06:35:58;;;;;;;23.08;15.57;;;;;;;1.83;100.00;103966.38;10473304;28;20432;-78
2023/01/24 06:41:00;;;;;;;26.00;17.17;;;;;;;1.74;100.00;103962.53;10472153;28;20488;-80
2023/01/24 06:46:00;;;;;;;23.92;15.23;;;;;;;1.78;100.00;103968.59;10480845;28;20033;-80
2023/01/24 06:51:01;;;;;;;22.05;13.70;;;;;;;1.78;100.00;103977.63;10489137;28;20041;-80
2023/01/24 06:56:01;;;;;;;20.27;14.05;;;;;;;1.77;100.00;103975.88;10458106;28;20460;-81
2023/01/24 07:01:02;;;;;;;19.58;12.40;;;;;;;1.76;100.00;103982.31;10455266;28;20452;-79
2023/01/24 07:06:02;;;;;;;23.52;15.27;;;;;;;1.57;100.00;103953.00;10494722;28;20563;-78
2023/01/24 07:11:03;;;;;;;20.00;13.05;;;;;;;1.74;100.00;103980.69;10455075;28;20078;-79
2023/01/24 07:16:04;;;;;;;19.10;12.70;;;;;;;1.74;100.00;103978.84;10457635;28;20574;-79
2023/01/24 07:21:06;;;;;;;19.65;12.15;;;;;;;1.40;100.00;103921.69;10497541;28;20033;-79
2023/01/24 07:26:09;;;;;;;18.90;11.93;;;;;;;1.76;100.00;103982.31;10479750;28;20040;-79
2023/01/24 07:31:11;;;;;;;21.55;13.07;;;;;;;1.79;100.00;103989.34;10498317;28;20066;-78
2023/01/24 07:36:13;;;;;;;19.67;11.52;;;;;;;1.78;100.00;103996.63;10454558;28;20033;-79
2023/01/24 07:41:13;;;;;;;16.33;10.93;;;;;;;1.77;100.00;104011.19;10484286;28;20108;-79
2023/01/24 07:46:14;;;;;;;17.90;11.18;;;;;;;1.75;100.00;104013.16;10472257;28;20033;-79
2023/01/24 07:51:14;;;;;;;20.92;11.52;;;;;;;1.76;100.00;104016.75;10466703;28;20119;-79
2023/01/24 07:56:16;;;;;;;22.52;12.77;;;;;;;1.80;100.00;104019.13;10494796;28;20032;-79
2023/01/24 08:01:17;;;;;;;15.77;10.27;;;;;;;1.75;100.00;104018.59;10495694;28;20037;-79
2023/01/24 08:06:18;;;;;;;19.90;11.83;;;;;;;1.84;100.00;104021.56;10501217;28;20348;-79
2023/01/24 08:11:18;;;;;;;15.75;9.95;;;;;;;1.83;100.00;104025.28;10502623;28;20307;-79
2023/01/24 08:16:23;;;;;;;18.20;10.20;;;;;;;1.78;100.00;104023.81;10499696;28;20040;-79
2023/01/24 08:21:23;;;;;;;14.93;9.02;;;;;;;1.80;100.00;104027.25;10463172;28;20068;-78
2023/01/24 08:26:24;;;;;;;18.65;9.55;;;;;;;1.83;100.00;104030.72;10488216;28;20079;-79
2023/01/24 08:31:24;;;;;;;14.85;9.05;;;;;;;1.82;100.00;104027.16;10504386;28;20328;-79
2023/01/24 08:36:25;;;;;;;17.15;10.75;;;;;;;1.79;100.00;104025.50;10504062;28;20388;-79
2023/01/24 08:41:25;;;;;;;14.90;9.60;;;;;;;1.81;100.00;104028.13;10504512;28;20044;-79
2023/01/24 08:46:26;;;;;;;16.47;10.10;;;;;;;1.95;100.00;104054.22;10462265;28;20044;-80
2023/01/24 08:51:26;;;;;;;14.50;8.52;;;;;;;1.96;100.00;104054.13;10464473;28;20049;-79
2023/01/24 08:56:27;;;;;;;15.60;9.52;;;;;;;2.00;100.00;104050.16;10481464;28;20043;-79
2023/01/24 09:01:27;;;;;;;14.48;8.98;;;;;;;2.05;100.00;104057.97;10502237;28;20048;-79
2023/01/24 09:06:28;;;;;;;15.18;9.20;;;;;;;2.02;100.00;104055.47;10502234;28;20032;-79
2023/01/24 09:11:28;;;;;;;14.40;9.02;;;;;;;2.06;100.00;104059.69;10502792;28;20032;-79
2023/01/24 09:16:29;;;;;;;13.52;8.45;;;;;;;2.09;100.00;104064.00;10501098;28;20465;-78
2023/01/24 09:21:29;;;;;;;15.82;9.93;;;;;;;2.17;100.00;104076.03;10483474;28;20487;-79
2023/01/24 09:26:30;;;;;;;14.60;9.00;;;;;;;2.17;100.00;104070.59;10502781;28;20040;-78
2023/01/24 09:31:31;;;;;;;14.00;8.63;;;;;;;2.16;100.00;104071.56;10500546;28;20093;-71
2023/01/24 09:36:31;;;;;;;13.15;8.90;;;;;;;2.18;100.00;104072.31;10463536;28;20052;-78
2023/01/24 09:41:44;;;;;;;14.63;9.77;;;;;;;2.08;100.00;104041.41;10479555;28;20067;-78
2023/01/24 09:46:48;;;;;;;12.38;8.48;;;;;;;2.30;100.00;104064.19;10478728;28;20036;-79
2023/01/24 09:51:52;;;;;;;16.88;10.10;;;;;;;2.35;100.00;104064.69;10478450;28;20048;-78
2023/01/24 09:56:52;;;;;;;16.63;9.40;;;;;;;2.28;100.00;104037.13;10470128;28;20041;-79
2023/01/24 10:01:53;;;;;;;15.05;9.63;;;;;;;2.29;100.00;104040.69;10459111;28;20037;-78
2023/01/24 10:07:18;;;;;;;17.95;9.95;;;;;;;2.38;100.00;104048.16;10452566;28;20037;-78
2023/01/24 10:12:35;;;;;;;16.80;9.60;;;;;;;2.44;100.00;104047.66;10480008;28;20038;-79
2023/01/24 10:17:41;;;;;;;18.95;10.77;;;;;;;2.45;100.00;104038.50;10482573;28;20105;-79
2023/01/24 10:22:50;;;;;;;;;;;;;;;2.51;100.00;104042.59;10499050;28;20032;-79
2023/01/24 10:27:53;;;;;;;16.33;9.85;;;;;;;2.49;100.00;104039.97;10499069;28;19943;-79
2023/01/24 10:32:57;;;;;;;19.00;10.68;;;;;;;2.54;100.00;104037.78;10479157;28;20478;-79
2023/01/24 10:37:59;;;;;;;17.85;10.98;;;;;;;2.56;100.00;104026.75;10473980;28;20706;-80
2023/01/24 10:43:05;;;;;;;17.20;9.90;;;;;;;2.59;100.00;104016.50;10464556;28;20060;-80
2023/01/24 10:48:24;;;;;;;;;;;;;;;2.60;100.00;104015.53;10498489;28;20036;-80
2023/01/24 10:53:26;;;;;;;14.57;9.25;;;;;;;1.83;100.00;103887.59;10498009;28;20496;-79
2023/01/24 10:58:32;;;;;;;17.75;10.85;;;;;;;2.66;100.00;104002.41;10480874;28;20040;-79
2023/01/24 11:03:34;;;;;;;16.50;9.60;;;;;;;2.70;100.00;104001.16;10447615;28;20037;-77
2023/01/24 11:08:36;;;;;;;15.43;9.65;;;;;;;2.69;100.00;104007.56;10475367;28;20067;-79
2023/01/24 11:13:39;;;;;;;17.02;9.10;;;;;;;2.72;100.00;104002.75;10496421;28;20067;-80
2023/01/24 11:18:46;;;;;;;16.40;10.65;;;;;;;2.72;100.00;104012.78;10496835;28;20036;-80
2023/01/24 11:23:57;;;;;;;16.80;10.38;;;;;;;2.76;100.00;104019.69;10454213;28;20071;-79
2023/01/24 11:29:04;;;;;;;18.02;12.50;;;;;;;2.78;100.00;104013.13;10496139;28;20048;-79
2023/01/24 11:34:14;;;;;;;17.75;10.00;;;;;;;2.75;100.00;104009.78;10497533;28;20052;-76
2023/01/24 11:39:43;;;;;;;15.43;10.20;;;;;;;2.77;100.00;103989.66;10484964;28;20115;-84
2023/01/24 11:45:09;;;;;;;15.40;9.40;;;;;;;2.70;100.00;103990.28;10422715;28;20052;-82
2023/01/24 11:50:28;;;;;;;17.67;11.65;;;;;;;2.85;100.00;103994.44;10428864;28;20383;-72
2023/01/24 11:56:07;;;;;;;15.98;10.07;;;;;;;2.88;100.00;103991.47;10496525;28;20041;-81
2023/01/24 12:01:07;;;;;;;17.95;11.23;;;;;;;2.91;100.00;103980.31;10484002;28;20545;-82
2023/01/24 12:06:35;;;;;;;22.75;11.70;;;;;;;2.91;100.00;103979.47;10478580;28;20051;-82
2023/01/24 12:11:39;;;;;;;17.60;10.90;;;;;;;2.92;100.00;103976.63;10480095;28;20116;-82
2023/01/24 12:17:01;;;;;;;17.20;10.75;;;;;;;2.81;100.00;103982.97;10457668;28;20044;-83
2023/01/24 12:22:10;;;;;;;19.88;10.77;;;;;;;2.71;100.00;103945.72;10489361;28;20071;-82
2023/01/24 12:27:17;;;;;;;18.17;10.75;;;;;;;2.82;100.00;103949.31;10446313;28;20043;-83
2023/01/24 12:32:36;;;;;;;19.60;11.75;;;;;;;2.82;100.00;103959.34;10485174;28;20032;-82
2023/01/24 12:37:48;;;;;;;18.40;10.88;;;;;;;2.62;100.00;103910.19;10503747;28;20056;-83
2023/01/24 12:42:55;;;;;;;21.13;10.73;;;;;;;2.87;100.00;103948.06;10502694;28;20037;-83
2023/01/24 12:48:24;;;;;;;21.17;11.98;;;;;;;2.75;100.00;103926.34;10478603;28;20048;-81
2023/01/24 12:53:30;;;;;;;21.52;11.88;;;;;;;2.53;100.00;103913.63;10469744;28;20053;-82
2023/01/24 12:58:39;;;;;;;21.13;13.13;;;;;;;2.65;100.00;103929.91;10444394;28;20131;-82
2023/01/24 13:04:10;;;;;;;17.85;11.45;;;;;;;2.66;100.00;103926.22;10429297;28;20043;-83
2023/01/24 13:09:19;;;;;;;19.13;12.60;;;;;;;2.63;100.00;103917.31;10503557;28;20069;-82
2023/01/24 13:14:22;;;;;;;18.83;12.32;;;;;;;2.60;100.00;103904.00;10503175;28;20036;-83
2023/01/24 13:19:47;;;;;;;18.88;11.80;;;;;;;2.67;100.00;103908.91;10451096;28;20053;-83
2023/01/24 13:24:50;;;;;;;22.92;13.95;;;;;;;2.61;100.00;103908.44;10460233;28;20095;-82
2023/01/24 13:30:32;;;;;;;20.20;12.95;;;;;;;2.62;100.00;103906.56;10457515;28;20076;-82
2023/01/24 13:35:32;;;;;;;19.20;12.63;;;;;;;2.53;100.00;103889.16;10453898;28;20111;-83
2023/01/24 13:40:36;;;;;;;22.40;11.75;;;;;;;2.51;100.00;103885.69;10483397;28;20036;-83
2023/01/24 13:45:39;;;;;;;21.65;12.90;;;;;;;2.54;100.00;103899.06;10500215;28;20096;-80
2023/01/24 13:50:39;;;;;;;20.45;13.15;;;;;;;2.47;100.00;103895.09;10475612;28;20469;-84
2023/01/24 13:55:39;;;;;;;20.20;11.82;;;;;;;2.41;100.00;103901.03;10487306;28;20039;-82
2023/01/24 14:00:48;;;;;;;20.27;12.52;;;;;;;2.37;100.00;103911.31;10499199;28;20062;-82
2023/01/24 14:05:50;;;;;;;22.30;12.68;;;;;;;2.25;100.00;103911.44;10457589;28;20144;-83
2023/01/24 14:10:56;;;;;;;21.05;13.05;;;;;;;2.20;100.00;103903.66;10438987;28;20424;-83
2023/01/24 14:15:56;;;;;;;22.58;13.32;;;;;;;2.18;100.00;103906.50;10458646;28;20101;-82
2023/01/24 14:20:57;;;;;;;20.63;13.45;;;;;;;2.01;100.00;103899.72;10457103;28;20048;-82
2023/01/24 14:25:58;;;;;;;22.98;12.85;;;;;;;2.03;100.00;103902.31;10469671;28;20079;-83
2023/01/24 14:31:02;;;;;;;20.88;13.35;;;;;;;2.00;100.00;103902.53;10478368;28;20052;-84
2023/01/24 14:36:13;;;;;;;22.15;14.15;;;;;;;2.02;100.00;103914.16;10456214;28;20537;-83
2023/01/24 14:41:21;;;;;;;26.00;14.82;;;;;;;1.98;100.00;103909.97;10462153;28;20033;-82
2023/01/24 14:46:23;;;;;;;24.13;15.38;;;;;;;1.89;100.00;103919.72;10456660;28;20120;-81
2023/01/24 14:51:24;;;;;;;25.67;15.55;;;;;;;1.83;100.00;103913.91;10462636;28;20048;-83
2023/01/24 14:56:24;;;;;;;24.27;15.80;;;;;;;1.77;100.00;103923.41;10476715;28;20428;-84
2023/01/24 15:01:30;;;;;;;25.27;15.38;;;;;;;1.71;100.00;103913.03;10462934;28;20032;-84
2023/01/24 15:06:32;;;;;;;21.63;14.30;;;;;;;1.67;100.00;103916.97;10497316;28;20067;-84
2023/01/24 15:11:35;;;;;;;23.35;15.23;;;;;;;1.64;100.00;103904.50;10499479;28;20124;-82
2023/01/24 15:16:37;;;;;;;22.23;13.25;;;;;;;1.55;100.00;103888.91;10493794;28;20036;-82
2023/01/24 15:21:39;;;;;;;22.27;14.33;;;;;;;1.48;100.00;103882.25;10468964;28;20041;-84
2023/01/24 15:26:41;;;;;;;21.73;14.27;;;;;;;1.52;100.00;103898.16;10453033;28;20041;-83
2023/01/24 15:31:47;;;;;;;23.88;15.25;;;;;;;1.49;100.00;103892.09;10470363;28;20056;-85
2023/01/24 15:36:56;;;;;;;23.95;14.15;;;;;;;1.45;100.00;103893.31;10471025;28;20033;-83
2023/01/24 15:52:38;;;;;;;21.65;13.45;;;;;;;1.36;100.00;103895.78;10461332;28;20389;-83
2023/01/24 15:57:38;;;;;;;21.83;14.73;;;;;;;1.31;100.00;103898.00;10489015;28;20041;-82
2023/01/24 16:02:39;;;;;;;21.77;13.50;;;;;;;1.28;100.00;103910.94;10487207;28;20044;-83
2023/01/24 16:07:39;;;;;;;23.02;14.48;;;;;;;1.15;100.00;103894.72;10488383;28;20040;-84
2023/01/24 16:12:40;;;;;;;21.27;13.70;;;;;;;1.17;100.00;103914.47;10487445;28;20032;-82
2023/01/24 16:17:40;;;;;;;21.10;13.00;;;;;;;1.16;100.00;103918.19;10487803;28;20041;-82
2023/01/24 16:22:41;;;;;;;21.63;13.57;;;;;;;1.13;100.00;103912.97;10465125;28;20064;-83
2023/01/24 16:27:41;;;;;;;22.45;14.18;;;;;;;1.12;100.00;103931.13;10473067;28;20103;-83
2023/01/24 16:32:42;;;;;;;22.63;13.23;;;;;;;1.08;100.00;103923.34;10487717;28;20030;-82
2023/01/24 16:37:42;;;;;;;21.02;13.27;;;;;;;1.04;100.00;103917.25;10466159;28;20045;-83
2023/01/24 16:42:44;;;;;;;18.45;12.07;;;;;;;1.03;100.00;103911.94;10456689;28;20085;-81
2023/01/24 16:47:45;;;;;;;24.13;13.40;;;;;;;0.95;100.00;103910.69;10459952;28;20029;-82
2023/01/24 16:52:46;;;;;;;20.17;12.40;;;;;;;0.96;100.00;103912.41;10453828;28;20028;-82
2023/01/24 16:57:46;;;;;;;20.58;13.13;;;;;;;0.95;100.00;103916.13;10482386;28;20033;-83
2023/01/24 17:02:48;;;;;;;20.90;12.82;;;;;;;0.89;100.00;103905.72;10449466;28;20037;-81
2023/01/24 17:07:49;;;;;;;22.43;13.93;;;;;;;0.78;100.00;103881.25;10483325;28;20046;-81
2023/01/24 17:12:49;;;;;;;20.92;12.63;;;;;;;0.89;100.00;103911.16;10502351;28;20424;-81
2023/01/24 17:17:50;;;;;;;23.08;14.25;;;;;;;0.88;100.00;103914.84;10503082;28;20051;-81
2023/01/24 17:22:50;;;;;;;21.20;13.90;;;;;;;0.88;100.00;103903.97;10482976;28;20040;-80
2023/01/24 17:27:51;;;;;;;25.57;15.50;;;;;;;0.89;100.00;103910.25;10493949;28;20045;-81
2023/01/24 17:32:51;;;;;;;22.40;13.77;;;;;;;0.89;100.00;103905.72;10466511;28;20048;-80
2023/01/24 17:37:52;;;;;;;23.40;15.13;;;;;;;0.89;100.00;103904.84;10468379;28;20033;-81
2023/01/24 17:42:52;;;;;;;25.55;15.40;;;;;;;0.77;100.00;103903.94;10467246;28;20730;-80
2023/01/24 17:47:53;;;;;;;26.60;16.17;;;;;;;0.82;100.00;103915.28;10459427;28;20041;-81
2023/01/24 17:52:53;;;;;;;20.98;13.13;;;;;;;0.86;100.00;103916.78;10473174;28;20565;-82
2023/01/24 17:57:54;;;;;;;25.17;14.20;;;;;;;0.86;100.00;103922.22;10489293;28;20044;-81
2023/01/24 18:02:54;;;;;;;21.80;15.63;;;;;;;0.86;100.00;103924.06;10497582;28;20036;-81
2023/01/24 18:07:55;;;;;;;24.40;14.70;;;;;;;0.86;100.00;103905.94;10479028;28;20024;-81
2023/01/24 18:12:55;;;;;;;24.00;15.10;;;;;;;0.84;100.00;103910.63;10486087;28;20037;-81
2023/01/24 18:17:56;;;;;;;25.88;15.52;;;;;;;0.82;100.00;103900.88;10486956;28;20430;-81
2023/01/24 18:22:56;;;;;;;28.65;15.30;;;;;;;0.79;100.00;103904.69;10498852;28;20066;-83
2023/01/24 18:27:56;;;;;;;24.97;16.20;;;;;;;0.78;100.00;103911.06;10498985;28;20037;-76
2023/01/24 18:32:57;;;;;;;23.73;14.68;;;;;;;0.79;100.00;103913.69;10485457;28;20048;-83
2023/01/24 18:37:57;;;;;;;25.93;17.53;;;;;;;0.66;100.00;103895.72;10498228;28;20056;-83
2023/01/24 18:42:58;;;;;;;23.70;14.83;;;;;;;0.73;100.00;103900.59;10469803;28;20037;-83
2023/01/24 18:47:58;;;;;;;27.57;16.90;;;;;;;0.72;100.00;103900.69;10455775;28;20036;-84
2023/01/24 18:52:59;;;;;;;26.43;16.37;;;;;;;0.71;100.00;103901.69;10461127;28;20037;-82
2023/01/24 18:57:59;;;;;;;26.87;16.60;;;;;;;0.68;100.00;103902.75;10457710;28;20045;-83
2023/01/24 19:03:00;;;;;;;24.88;16.52;;;;;;;0.60;100.00;103906.06;10479292;28;20033;-82
2023/01/24 19:08:00;;;;;;;23.83;15.40;;;;;;;0.52;100.00;103902.19;10495886;28;20059;-82
2023/01/24 19:13:01;;;;;;;25.97;16.37;;;;;;;0.55;100.00;103910.09;10498098;28;20032;-84
2023/01/24 19:18:01;;;;;;;25.07;15.50;;;;;;;0.41;100.00;103881.28;10497822;28;20063;-72
2023/01/24 19:23:01;;;;;;;24.03;15.70;;;;;;;0.50;100.00;103894.16;10480198;28;20043;-82
2023/01/24 19:28:02;;;;;;;29.47;16.53;;;;;;;0.42;100.00;103888.44;10497520;28;20044;-82
2023/01/24 19:33:02;;;;;;;25.98;16.20;;;;;;;0.44;100.00;103900.03;10496902;28;20033;-82
2023/01/24 19:38:03;;;;;;;27.10;17.23;;;;;;;0.46;100.00;103903.50;10495336;28;20035;-83
2023/01/24 19:43:03;;;;;;;27.30;16.37;;;;;;;0.49;100.00;103900.56;10494640;28;20033;-83
2023/01/24 19:48:05;;;;;;;28.13;17.53;;;;;;;0.52;100.00;103896.78;10497974;28;20029;-83
2023/01/24 19:53:08;;;;;;;26.60;16.30;;;;;;;0.47;100.00;103894.38;10496157;28;20112;-83
2023/01/24 19:58:09;;;;;;;25.93;16.17;;;;;;;0.44;100.00;103900.03;10496428;28;20040;-82
2023/01/24 20:03:10;;;;;;;26.30;16.40;;;;;;;0.40;100.00;103895.81;10485721;28;20033;-82
2023/01/24 20:08:11;;;;;;;26.17;16.67;;;;;;;0.31;100.00;103907.31;10502522;28;20103;-82
2023/01/24 20:13:14;;;;;;;29.33;17.77;;;;;;;0.33;100.00;103916.22;10504945;28;20028;-82
2023/01/24 20:18:15;;;;;;;24.90;16.00;;;;;;;0.32;100.00;103914.50;10486251;28;20040;-83
2023/01/24 20:23:15;;;;;;;28.40;17.43;;;;;;;0.35;100.00;103911.53;10504566;28;20037;-82
2023/01/24 20:28:17;;;;;;;27.83;16.53;;;;;;;0.41;100.00;103911.09;10504079;28;20037;-81
2023/01/24 20:33:17;;;;;;;28.52;17.55;;;;;;;0.32;100.00;103917.19;10502823;28;20041;-81
2023/01/24 20:38:18;;;;;;;25.75;16.45;;;;;;;0.27;100.00;103928.38;10503229;28;20044;-82
2023/01/24 20:43:18;;;;;;;29.47;17.37;;;;;;;0.25;100.00;103926.72;10501806;28;20037;-81
2023/01/24 20:48:19;;;;;;;27.73;17.37;;;;;;;0.23;100.00;103917.84;10503240;28;20043;-81
2023/01/24 20:53:19;;;;;;;26.87;17.20;;;;;;;0.22;100.00;103916.13;10500199;28;20031;-81
2023/01/24 20:58:20;;;;;;;29.27;17.70;;;;;;;0.19;100.00;103918.09;10488401;28;20044;-81
2023/01/24 21:03:23;;;;;;;31.57;18.80;;;;;;;0.14;100.00;103903.13;10472760;28;20421;-81
2023/01/24 21:08:23;;;;;;;29.47;18.57;;;;;;;0.26;100.00;103917.66;10489681;28;20029;-82
2023/01/24 21:13:24;;;;;;;28.35;17.15;;;;;;;0.20;100.00;103910.81;10500216;28;20402;-82
2023/01/24 21:18:24;;;;;;;33.30;19.90;;;;;;;0.14;100.00;103898.56;10501772;28;20036;-82
2023/01/24 21:23:26;;;;;;;36.07;19.40;;;;;;;0.17;100.00;103901.06;10502487;28;20510;-81
2023/01/24 21:28:27;;;;;;;31.80;19.30;;;;;;;0.22;100.00;103899.88;10500826;28;20063;-82
2023/01/24 21:33:27;;;;;;;30.23;18.70;;;;;;;0.26;100.00;103898.69;10464812;28;20041;-81
2023/01/24 21:38:28;;;;;;;31.30;18.87;;;;;;;0.13;100.00;103890.56;10460087;28;20029;-81
2023/01/24 21:43:28;;;;;;;30.73;19.20;;;;;;;0.12;100.00;103900.53;10469356;28;20126;-81
2023/01/24 21:49:04;;;;;;;32.80;19.70;;;;;;;0.26;100.00;103912.22;10500953;28;20041;-82
2023/01/24 21:54:01;;;;;;;32.37;19.17;;;;;;;0.20;100.00;103892.72;10489171;28;20049;-74
2023/01/24 21:59:01;;;;;;;30.20;18.53;;;;;;;0.25;100.00;103899.63;10486529;28;20092;-82
2023/01/24 22:04:02;;;;;;;31.13;16.80;;;;;;;0.22;100.00;103902.59;10499871;28;20028;-80
2023/01/24 22:09:02;;;;;;;31.60;17.87;;;;;;;0.22;100.00;103889.03;10499999;28;20041;-72
2023/01/24 22:14:03;;;;;;;30.33;18.27;;;;;;;0.22;100.00;103879.06;10488500;28;20040;-82
2023/01/24 22:19:04;;;;;;;32.22;18.85;;;;;;;0.19;100.00;103880.16;10495693;28;20044;-82
2023/01/24 22:24:08;;;;;;;31.43;18.47;;;;;;;0.19;100.00;103865.75;10470003;28;20040;-82
2023/01/24 22:29:11;;;;;;;33.43;19.77;;;;;;;0.14;100.00;103876.03;10481128;28;20048;-81
2023/01/24 22:34:18;;;;;;;30.52;17.00;;;;;;;0.15;100.00;103866.94;10469776;28;20051;-82
2023/01/24 22:39:19;;;;;;;31.13;18.73;;;;;;;0.10;100.00;103859.13;10463937;28;20075;-82
2023/01/24 22:44:19;;;;;;;28.33;18.50;;;;;;;0.07;100.00;103867.50;10490218;28;20043;-82
2023/01/24 22:49:20;;;;;;;31.05;17.83;;;;;;;0.08;100.00;103866.50;10498492;28;20033;-78
2023/01/24 22:54:20;;;;;;;32.47;18.93;;;;;;;0.06;100.00;103865.75;10496928;28;20036;-81
2023/01/24 22:59:21;;;;;;;31.03;18.27;;;;;;;-0.01;100.00;103859.06;10493832;28;20033;-81
2023/01/24 23:04:22;;;;;;;32.97;19.10;;;;;;;-0.10;100.00;103854.31;10494058;28;20044;-82
2023/01/24 23:09:22;;;;;;;31.97;18.63;;;;;;;-0.13;100.00;103841.84;10496139;28;20056;-81
2023/01/24 23:25:05;;;;;;;34.53;19.70;;;;;;;-0.11;100.00;103812.81;10474107;28;20060;-80
2023/01/24 23:30:05;;;;;;;36.00;20.23;;;;;;;-0.11;100.00;103812.81;10475868;28;20041;-82
2023/01/24 23:35:08;;;;;;;36.00;20.15;;;;;;;-0.10;100.00;103802.88;10460993;28;20040;-81